createdAt,value
2022-10-08T00:00:25.197Z,10.40
2022-10-08T00:04:06.906Z,10.48
2022-10-08T00:07:33.817Z,10.56
2022-10-08T00:11:03.373Z,10.64
2022-10-08T00:14:30.144Z,10.75
2022-10-08T00:17:57.125Z,10.84
2022-10-08T00:21:26.130Z,10.91
2022-10-08T00:24:55.785Z,10.97
2022-10-08T00:28:23.109Z,11.01
2022-10-08T00:31:51.932Z,11.04
2022-10-08T00:35:19.557Z,11.03
2022-10-08T00:38:46.483Z,11.01
2022-10-08T00:42:14.722Z,10.97
2022-10-08T00:45:43.437Z,10.92
2022-10-08T00:49:20.331Z,10.86
2022-10-08T00:52:50.811Z,10.81
2022-10-08T00:56:17.481Z,10.77
2022-10-08T00:59:44.552Z,10.73
2022-10-08T01:03:12.178Z,10.70
2022-10-08T01:06:47.755Z,10.71
2022-10-08T01:10:26.287Z,10.73
2022-10-08T01:14:05.930Z,10.74
2022-10-08T01:17:45.627Z,10.75
2022-10-08T01:21:17.652Z,10.75
2022-10-08T01:25:05.999Z,10.74
2022-10-08T01:28:36.770Z,10.71
2022-10-08T01:32:06.041Z,10.65
2022-10-08T01:35:37.982Z,10.57
2022-10-08T01:39:10.357Z,10.49
2022-10-08T01:42:40.587Z,10.39
2022-10-08T01:46:12.739Z,10.30
2022-10-08T01:49:44.101Z,10.21
2022-10-08T01:53:15.105Z,10.12
2022-10-08T01:56:44.829Z,10.06
2022-10-08T02:00:16.644Z,10.00
2022-10-08T02:04:03.652Z,9.97
2022-10-08T02:07:33.165Z,9.95
2022-10-08T02:10:59.871Z,9.94
2022-10-08T02:14:29.090Z,9.95
2022-10-08T02:18:06.463Z,9.95
2022-10-08T02:21:35.285Z,9.95
2022-10-08T02:25:08.423Z,9.93
2022-10-08T02:28:41.291Z,9.89
2022-10-08T02:32:14.822Z,9.84
2022-10-08T02:35:46.115Z,9.75
2022-10-08T02:39:15.548Z,9.67
2022-10-08T02:42:46.210Z,9.59
2022-10-08T02:46:17.469Z,9.54
2022-10-08T02:49:50.664Z,9.50
2022-10-08T02:53:18.958Z,9.47
2022-10-08T02:56:52.874Z,9.45
2022-10-08T03:00:20.312Z,9.43
2022-10-08T03:03:53.859Z,9.43
2022-10-08T03:07:23.237Z,9.43
2022-10-08T03:10:50.403Z,9.47
2022-10-08T03:14:20.488Z,9.51
2022-10-08T03:17:50.315Z,9.54
2022-10-08T03:21:18.228Z,9.55
2022-10-08T03:24:44.976Z,9.57
2022-10-08T03:28:11.863Z,9.59
2022-10-08T03:31:38.709Z,9.59
2022-10-08T03:35:05.574Z,9.58
2022-10-08T03:38:34.992Z,9.55
2022-10-08T03:42:01.731Z,9.52
2022-10-08T03:45:28.352Z,9.48
2022-10-08T03:48:54.938Z,9.43
2022-10-08T03:52:21.756Z,9.40
2022-10-08T03:55:48.317Z,9.39
2022-10-08T03:59:15.056Z,9.37
2022-10-08T04:02:42.035Z,9.38
2022-10-08T04:06:09.806Z,9.41
2022-10-08T04:09:36.667Z,9.44
2022-10-08T04:13:04.815Z,9.48
2022-10-08T04:16:31.620Z,9.55
2022-10-08T04:19:58.777Z,9.61
2022-10-08T04:23:25.321Z,9.63
2022-10-08T04:27:02.706Z,9.65
2022-10-08T04:30:31.453Z,9.66
2022-10-08T04:33:58.236Z,9.67
2022-10-08T04:37:24.758Z,9.66
2022-10-08T04:41:02.407Z,9.65
2022-10-08T04:44:29.159Z,9.65
2022-10-08T04:47:55.594Z,9.65
2022-10-08T04:51:24.616Z,9.63
2022-10-08T04:54:51.795Z,9.62
2022-10-08T04:58:18.298Z,9.62
2022-10-08T05:01:45.037Z,9.64
2022-10-08T05:05:12.617Z,9.69
2022-10-08T05:08:42.137Z,9.76
2022-10-08T05:12:09.117Z,9.82
2022-10-08T05:15:37.491Z,9.90
2022-10-08T05:19:04.912Z,9.98
2022-10-08T05:22:31.821Z,10.07
2022-10-08T05:25:58.564Z,10.13
2022-10-08T05:29:25.073Z,10.20
2022-10-08T05:32:51.759Z,10.24
2022-10-08T05:36:22.290Z,10.27
2022-10-08T05:39:48.770Z,10.27
2022-10-08T05:43:15.308Z,10.28
2022-10-08T05:46:42.772Z,10.29
2022-10-08T05:50:11.389Z,10.30
2022-10-08T05:53:41.393Z,10.34
2022-10-08T05:57:07.975Z,10.38
2022-10-08T06:00:34.334Z,10.44
2022-10-08T06:04:08.537Z,10.52
2022-10-08T06:07:36.060Z,10.62
2022-10-08T06:11:03.127Z,10.71
2022-10-08T06:14:29.866Z,10.84
2022-10-08T06:17:57.583Z,10.95
2022-10-08T06:21:26.430Z,11.06
2022-10-08T06:24:53.174Z,11.16
2022-10-08T06:28:20.026Z,11.27
2022-10-08T06:31:47.082Z,11.37
2022-10-08T06:35:14.342Z,11.47
2022-10-08T06:38:41.077Z,11.57
2022-10-08T06:42:08.622Z,11.66
2022-10-08T06:45:40.947Z,11.76
2022-10-08T06:49:08.394Z,11.82
2022-10-08T06:52:35.164Z,11.87
2022-10-08T06:56:03.417Z,11.91
2022-10-08T06:59:30.121Z,11.94
2022-10-08T07:02:57.519Z,11.98
2022-10-08T07:06:25.883Z,12.03
2022-10-08T07:09:52.313Z,12.07
2022-10-08T07:13:18.898Z,12.15
2022-10-08T07:16:46.033Z,12.20
2022-10-08T07:20:13.194Z,12.28
2022-10-08T07:23:42.602Z,12.36
2022-10-08T07:27:10.814Z,12.48
2022-10-08T07:30:39.446Z,12.59
2022-10-08T07:34:08.411Z,12.70
2022-10-08T07:37:35.294Z,12.83
2022-10-08T07:41:02.278Z,12.99
2022-10-08T07:44:28.932Z,13.10
2022-10-08T07:47:55.795Z,13.18
2022-10-08T07:51:23.398Z,13.24
2022-10-08T07:54:50.356Z,13.30
2022-10-08T07:58:17.245Z,13.34
2022-10-08T08:01:44.520Z,13.38
2022-10-08T08:05:12.598Z,13.42
2022-10-08T08:08:40.670Z,13.44
2022-10-08T08:12:07.323Z,13.49
2022-10-08T08:15:34.420Z,13.55
2022-10-08T08:19:03.051Z,13.63
2022-10-08T08:22:30.642Z,13.70
2022-10-08T08:25:57.592Z,13.82
2022-10-08T08:29:25.371Z,13.93
2022-10-08T08:32:55.167Z,14.04
2022-10-08T08:36:25.874Z,14.16
2022-10-08T08:39:52.784Z,14.26
2022-10-08T08:43:19.858Z,14.37
2022-10-08T08:46:53.514Z,14.46
2022-10-08T08:50:26.292Z,14.59
2022-10-08T08:53:53.824Z,14.71
2022-10-08T08:57:38.148Z,14.78
2022-10-08T09:01:15.494Z,14.79
2022-10-08T09:04:46.333Z,14.85
2022-10-08T09:08:22.369Z,14.91
2022-10-08T09:11:49.326Z,14.92
2022-10-08T09:15:26.952Z,14.95
2022-10-08T09:18:54.883Z,15.02
2022-10-08T09:22:27.555Z,15.11
2022-10-08T09:25:58.960Z,15.24
2022-10-08T09:29:37.779Z,15.39
2022-10-08T09:33:18.653Z,15.51
2022-10-08T09:36:48.267Z,15.63
2022-10-08T09:40:26.773Z,15.77
2022-10-08T09:44:16.238Z,15.91
2022-10-08T09:47:43.582Z,15.93
2022-10-08T09:51:18.962Z,15.99
2022-10-08T09:54:50.328Z,16.09
2022-10-08T09:58:20.654Z,16.14
2022-10-08T10:01:49.931Z,16.22
2022-10-08T10:05:27.273Z,16.23
2022-10-08T10:09:03.659Z,16.22
2022-10-08T10:12:38.066Z,16.28
2022-10-08T10:16:10.180Z,16.35
2022-10-08T10:19:43.479Z,16.40
2022-10-08T10:23:18.010Z,16.43
2022-10-08T10:26:47.471Z,16.47
2022-10-08T10:30:21.206Z,16.52
2022-10-08T10:33:58.950Z,16.62
2022-10-08T10:37:35.433Z,16.69
2022-10-08T10:41:13.093Z,16.77
2022-10-08T10:44:53.454Z,16.82
2022-10-08T10:48:20.032Z,16.83
2022-10-08T10:52:07.373Z,16.87
2022-10-08T10:55:40.215Z,16.89
2022-10-08T10:59:36.032Z,16.87
2022-10-08T11:03:12.064Z,16.91
2022-10-08T11:07:02.974Z,16.96
2022-10-08T11:10:41.847Z,17.00
2022-10-08T11:14:21.319Z,17.04
2022-10-08T11:18:12.170Z,17.09
2022-10-08T11:21:49.672Z,17.16
2022-10-08T11:25:44.673Z,17.19
2022-10-08T11:29:30.159Z,17.24
2022-10-08T11:33:12.883Z,17.25
2022-10-08T11:36:48.893Z,17.20
2022-10-08T11:40:27.167Z,17.27
2022-10-08T11:44:00.909Z,17.29
2022-10-08T11:47:53.843Z,17.34
2022-10-08T11:51:41.251Z,17.38
2022-10-08T11:55:19.134Z,17.42
2022-10-08T11:58:54.596Z,17.51
2022-10-08T12:02:30.110Z,17.59
2022-10-08T12:05:59.096Z,17.62
2022-10-08T12:09:27.732Z,17.61
2022-10-08T12:13:24.425Z,17.57
2022-10-08T12:17:11.913Z,17.52
2022-10-08T12:20:41.629Z,17.49
2022-10-08T12:24:50.354Z,17.51
2022-10-08T12:28:52.131Z,17.61
2022-10-08T12:32:22.002Z,17.71
2022-10-08T12:36:00.499Z,17.72
2022-10-08T12:39:40.985Z,17.72
2022-10-08T12:43:23.280Z,17.70
2022-10-08T12:47:01.057Z,17.64
2022-10-08T12:50:49.812Z,17.60
2022-10-08T12:54:26.404Z,17.55
2022-10-08T12:57:57.058Z,17.48
2022-10-08T13:01:24.897Z,17.39
2022-10-08T13:04:53.869Z,17.30
2022-10-08T13:08:40.174Z,17.23
2022-10-08T13:12:11.169Z,17.19
2022-10-08T13:15:38.741Z,17.19
2022-10-08T13:19:23.814Z,17.21
2022-10-08T13:22:52.711Z,17.23
2022-10-08T13:26:43.263Z,17.23
2022-10-08T13:30:29.336Z,17.22
2022-10-08T13:34:04.054Z,17.20
2022-10-08T13:37:37.392Z,17.18
2022-10-08T13:41:06.617Z,17.22
2022-10-08T13:44:35.358Z,17.25
2022-10-08T13:48:02.302Z,17.25
2022-10-08T13:51:29.975Z,17.25
2022-10-08T13:55:02.666Z,17.21
2022-10-08T13:58:33.460Z,17.16
2022-10-08T14:02:00.807Z,17.12
2022-10-08T14:05:31.838Z,17.10
2022-10-08T14:08:59.288Z,17.09
2022-10-08T14:12:30.342Z,17.07
2022-10-08T14:15:57.173Z,17.09
2022-10-08T14:19:24.067Z,17.10
2022-10-08T14:22:51.985Z,17.12
2022-10-08T14:26:21.920Z,17.12
2022-10-08T14:29:49.087Z,17.13
2022-10-08T14:33:16.050Z,17.11
2022-10-08T14:36:43.876Z,17.09
2022-10-08T14:40:19.873Z,17.05
2022-10-08T14:43:49.303Z,17.02
2022-10-08T14:47:16.370Z,17.02
2022-10-08T14:50:43.889Z,17.02
2022-10-08T14:54:12.641Z,16.98
2022-10-08T14:57:41.922Z,16.90
2022-10-08T15:01:09.409Z,16.81
2022-10-08T15:04:38.598Z,16.70
2022-10-08T15:08:05.516Z,16.61
2022-10-08T15:11:32.603Z,16.56
2022-10-08T15:14:59.815Z,16.53
2022-10-08T15:18:31.208Z,16.49
2022-10-08T15:22:03.307Z,16.46
2022-10-08T15:25:30.047Z,16.42
2022-10-08T15:28:57.367Z,16.38
2022-10-08T15:32:29.646Z,16.32
2022-10-08T15:35:59.008Z,16.25
2022-10-08T15:39:26.754Z,16.17
2022-10-08T15:42:54.396Z,16.09
2022-10-08T15:46:26.306Z,16.02
2022-10-08T15:49:53.280Z,15.95
2022-10-08T15:53:20.251Z,15.88
2022-10-08T15:56:47.419Z,15.82
2022-10-08T16:00:16.377Z,15.75
2022-10-08T16:03:45.027Z,15.69
2022-10-08T16:07:12.383Z,15.63
2022-10-08T16:10:39.695Z,15.60
2022-10-08T16:14:08.956Z,15.59
2022-10-08T16:17:35.900Z,15.61
2022-10-08T16:21:05.727Z,15.62
2022-10-08T16:24:32.673Z,15.63
2022-10-08T16:28:02.504Z,15.63
2022-10-08T16:31:32.606Z,15.61
2022-10-08T16:34:59.149Z,15.59
2022-10-08T16:38:26.666Z,15.57
2022-10-08T16:41:54.191Z,15.55
2022-10-08T16:45:21.447Z,15.50
2022-10-08T16:48:53.771Z,15.46
2022-10-08T16:52:20.850Z,15.41
2022-10-08T16:55:47.735Z,15.37
2022-10-08T16:59:19.345Z,15.33
2022-10-08T17:02:46.838Z,15.29
2022-10-08T17:06:16.730Z,15.25
2022-10-08T17:09:44.898Z,15.23
2022-10-08T17:13:11.757Z,15.20
2022-10-08T17:16:39.900Z,15.20
2022-10-08T17:20:08.186Z,15.20
2022-10-08T17:23:38.473Z,15.20
2022-10-08T17:27:05.925Z,15.19
2022-10-08T17:30:39.746Z,15.16
2022-10-08T17:34:07.712Z,15.12
2022-10-08T17:37:35.411Z,15.09
2022-10-08T17:41:02.576Z,15.07
2022-10-08T17:44:34.295Z,15.04
2022-10-08T17:48:05.445Z,15.00
2022-10-08T17:51:35.043Z,14.93
2022-10-08T17:55:02.638Z,14.82
2022-10-08T17:58:32.190Z,14.73
2022-10-08T18:02:02.670Z,14.65
2022-10-08T18:05:30.550Z,14.60
2022-10-08T18:09:02.428Z,14.59
2022-10-08T18:12:32.727Z,14.61
2022-10-08T18:16:03.925Z,14.62
2022-10-08T18:19:30.530Z,14.60
2022-10-08T18:22:57.643Z,14.61
2022-10-08T18:26:27.118Z,14.58
2022-10-08T18:29:56.668Z,14.56
2022-10-08T18:33:24.852Z,14.50
2022-10-08T18:36:53.097Z,14.47
2022-10-08T18:40:22.595Z,14.43
2022-10-08T18:43:50.926Z,14.37
2022-10-08T18:47:17.434Z,14.28
2022-10-08T18:50:49.199Z,14.20
2022-10-08T18:54:16.085Z,14.11
2022-10-08T18:57:56.047Z,14.04
2022-10-08T19:01:25.701Z,13.98
2022-10-08T19:04:53.431Z,13.91
2022-10-08T19:08:20.440Z,13.86
2022-10-08T19:11:49.288Z,13.79
2022-10-08T19:15:15.963Z,13.70
2022-10-08T19:18:43.939Z,13.64
2022-10-08T19:22:13.153Z,13.62
2022-10-08T19:25:40.318Z,13.60
2022-10-08T19:29:07.618Z,13.58
2022-10-08T19:32:34.691Z,13.55
2022-10-08T19:36:05.046Z,13.49
2022-10-08T19:39:34.177Z,13.43
2022-10-08T19:43:03.579Z,13.37
2022-10-08T19:46:31.166Z,13.33
2022-10-08T19:49:58.639Z,13.23
2022-10-08T19:53:25.257Z,13.18
2022-10-08T19:56:51.872Z,13.11
2022-10-08T20:00:19.791Z,13.06
2022-10-08T20:03:48.490Z,13.02
2022-10-08T20:07:16.038Z,12.97
2022-10-08T20:10:44.035Z,12.92
2022-10-08T20:14:10.971Z,12.88
2022-10-08T20:17:38.023Z,12.81
2022-10-08T20:21:07.280Z,12.70
2022-10-08T20:24:34.365Z,12.63
2022-10-08T20:28:01.182Z,12.57
2022-10-08T20:31:30.151Z,12.52
2022-10-08T20:34:58.316Z,12.48
2022-10-08T20:38:27.709Z,12.46
2022-10-08T20:41:54.657Z,12.44
2022-10-08T20:45:22.320Z,12.43
2022-10-08T20:48:50.024Z,12.41
2022-10-08T20:52:18.585Z,12.37
2022-10-08T20:55:45.532Z,12.35
2022-10-08T20:59:16.183Z,12.33
2022-10-08T21:02:44.992Z,12.31
2022-10-08T21:06:14.142Z,12.29
2022-10-08T21:09:43.651Z,12.28
2022-10-08T21:13:14.098Z,12.25
2022-10-08T21:16:42.988Z,12.26
2022-10-08T21:20:13.690Z,12.23
2022-10-08T21:23:42.012Z,12.19
2022-10-08T21:27:11.162Z,12.12
2022-10-08T21:30:38.893Z,12.04
2022-10-08T21:34:08.570Z,11.99
2022-10-08T21:37:36.424Z,11.96
2022-10-08T21:41:14.864Z,11.94
2022-10-08T21:49:04.716Z,11.91
2022-10-08T21:52:34.259Z,11.90
2022-10-08T21:56:05.022Z,11.90
2022-10-08T21:59:32.281Z,11.91
2022-10-08T22:02:59.064Z,11.92
2022-10-08T22:06:27.111Z,11.86
2022-10-08T22:10:01.892Z,11.80
2022-10-08T22:13:29.041Z,11.77
2022-10-08T22:16:57.474Z,11.69
2022-10-08T22:20:24.189Z,11.65
2022-10-08T22:23:53.288Z,11.59
2022-10-08T22:27:20.243Z,11.52
2022-10-08T22:30:47.083Z,11.45
2022-10-08T22:34:14.603Z,11.41
2022-10-08T22:37:42.663Z,11.38
2022-10-08T22:41:14.321Z,11.34
2022-10-08T22:44:44.670Z,11.29
2022-10-08T22:48:13.997Z,11.25
2022-10-08T22:51:46.412Z,11.23
2022-10-08T22:55:18.380Z,11.23
2022-10-08T22:59:00.909Z,11.22
2022-10-08T23:02:29.028Z,11.17
2022-10-08T23:06:08.217Z,11.16
2022-10-08T23:09:34.834Z,11.11
2022-10-08T23:13:04.478Z,11.07
2022-10-08T23:16:38.411Z,10.98
2022-10-08T23:20:06.001Z,10.91
2022-10-08T23:23:33.795Z,10.81
2022-10-08T23:27:00.977Z,10.71
2022-10-08T23:30:42.561Z,10.64
2022-10-08T23:34:10.366Z,10.59
2022-10-08T23:37:37.635Z,10.55
2022-10-08T23:41:06.539Z,10.54
2022-10-08T23:44:33.708Z,10.53
2022-10-08T23:48:01.616Z,10.53
2022-10-08T23:51:32.007Z,10.53
2022-10-08T23:54:59.046Z,10.52
2022-10-08T23:58:29.232Z,10.56
